This is the latest recevied weather packets stored in our database for station/object DB0OHA-10. If no packets are shown the sender has not sent any weather packets the latest 10 day(s).
| Time | Temp. | Humidity | Pressure | Rain* | Wind** | Luminosity | Snow |
|---|---|---|---|---|---|---|---|
| 1777311023 | 14.44° C | 55% | 1020.2 hPa | 0 mm | - | 72 W/m² | - |
| 1777310124 | 14.44° C | 55% | 1020.2 hPa | 0 mm | - | 62 W/m² | - |
| 1777309287 | 14.44° C | 50% | 1020.3 hPa | 0 mm | - | 47 W/m² | - |
| 1777309223 | 14.44° C | 50% | 1020.3 hPa | 0 mm | - | 47 W/m² | - |
| 1777308324 | 15.56° C | 49% | 1020.4 hPa | 0 mm | - | 104 W/m² | - |
| 1777307423 | 16.67° C | 49% | 1020.4 hPa | 0 mm | - | 223 W/m² | - |
| 1777306523 | 16.11° C | 48% | 1020.4 hPa | 0 mm | - | 287 W/m² | - |
| 1777305624 | 16.11° C | 48% | 1020.6 hPa | 0 mm | - | 327 W/m² | - |
| 1777304724 | 16.11° C | 49% | 1020.6 hPa | 0 mm | - | 371 W/m² | - |
| 1777303824 | 16.67° C | 49% | 1020.7 hPa | 0 mm | - | 390 W/m² | - |
| 1777302924 | 16.67° C | 48% | 1020.8 hPa | 0 mm | - | 434 W/m² | - |
| 1777302024 | 16.67° C | 52% | 1020.8 hPa | 0 mm | - | 404 W/m² | - |
| 1777301124 | 16.67° C | 50% | 1021 hPa | 0 mm | - | 515 W/m² | - |
| 1777300224 | 16.11° C | 49% | 1021.2 hPa | 0 mm | - | 492 W/m² | - |
| 1777299324 | 16.67° C | 48% | 1021.4 hPa | 0 mm | - | 645 W/m² | - |
| 1777298424 | 16.11° C | 48% | 1021.5 hPa | 0 mm | - | 515 W/m² | - |
| 1777297524 | 16.67° C | 47% | 1021.7 hPa | 0 mm | - | 570 W/m² | - |
| 1777296624 | 15.56° C | 47% | 1021.9 hPa | 0 mm | - | 552 W/m² | - |
| 1777295724 | 15.56° C | 46% | 1022.1 hPa | 0 mm | - | 591 W/m² | - |
| 1777294824 | 15.56° C | 47% | 1022.2 hPa | 0 mm | - | 563 W/m² | - |
| 1777293924 | 15.56° C | 50% | 1022.3 hPa | 0 mm | - | 640 W/m² | - |
| 1777293024 | 15° C | 48% | 1022.4 hPa | 0 mm | - | 461 W/m² | - |
| 1777292124 | 15° C | 49% | 1022.4 hPa | 0 mm | - | 504 W/m² | - |
| 1777291224 | 14.44° C | 47% | 1022.5 hPa | 0 mm | - | 506 W/m² | - |
| 1777290324 | 15° C | 48% | 1022.7 hPa | 0 mm | - | 517 W/m² | - |
* Rain latest hour (hover to see other rain measurements)
** Current wind speed in m/s (hover to see current wind gust speed)